createdAt,value
2022-12-01T00:00:16.170Z,51.15
2022-12-01T00:01:19.769Z,52.45
2022-12-01T00:02:22.282Z,52.53
2022-12-01T00:03:26.073Z,52.67
2022-12-01T00:04:28.843Z,52.50
2022-12-01T00:05:32.433Z,53.13
2022-12-01T00:06:35.157Z,51.58
2022-12-01T00:07:39.006Z,52.42
2022-12-01T00:09:03.252Z,52.80
2022-12-01T00:10:25.499Z,51.47
2022-12-01T00:11:27.948Z,49.72
2022-12-01T00:12:32.805Z,52.83
2022-12-01T00:13:35.517Z,52.05
2022-12-01T00:14:38.877Z,50.92
2022-12-01T00:15:41.339Z,52.80
2022-12-01T00:16:45.005Z,51.65
2022-12-01T00:17:47.950Z,52.55
2022-12-01T00:18:51.748Z,52.33
2022-12-01T00:19:55.101Z,53.15
2022-12-01T00:20:57.599Z,51.03
2022-12-01T00:22:01.206Z,50.58
2022-12-01T00:23:03.678Z,53.13
2022-12-01T00:24:09.016Z,50.97
2022-12-01T00:25:13.349Z,51.88
2022-12-01T00:26:16.679Z,52.28
2022-12-01T00:27:20.054Z,51.00
2022-12-01T00:28:24.110Z,51.00
2022-12-01T00:29:28.952Z,50.38
2022-12-01T00:30:31.306Z,49.08
2022-12-01T00:31:34.586Z,51.13
2022-12-01T00:32:36.981Z,51.78
2022-12-01T00:33:40.747Z,50.75
2022-12-01T00:34:42.879Z,49.85
2022-12-01T00:35:46.003Z,50.17
2022-12-01T00:36:48.181Z,50.70
2022-12-01T00:37:51.366Z,50.97
2022-12-01T00:38:54.805Z,50.90
2022-12-01T00:39:58.588Z,50.15
2022-12-01T00:41:00.812Z,50.20
2022-12-01T00:42:05.458Z,51.28
2022-12-01T00:43:09.644Z,50.13
2022-12-01T00:44:14.338Z,50.33
2022-12-01T00:45:16.349Z,50.53
2022-12-01T00:46:20.075Z,51.63
2022-12-01T00:47:22.405Z,50.53
2022-12-01T00:48:25.925Z,50.83
2022-12-01T00:49:27.972Z,49.53
2022-12-01T00:50:31.061Z,48.85
2022-12-01T00:51:33.080Z,51.63
2022-12-01T00:52:36.159Z,50.63
2022-12-01T00:53:38.239Z,50.05
2022-12-01T00:54:41.460Z,51.00
2022-12-01T00:55:43.468Z,49.47
2022-12-01T00:56:46.549Z,50.95
2022-12-01T00:57:48.614Z,51.17
2022-12-01T00:58:51.659Z,50.85
2022-12-01T00:59:55.065Z,50.92
2022-12-01T01:00:59.573Z,49.70
2022-12-01T01:02:01.939Z,50.47
2022-12-01T01:03:05.259Z,51.10
2022-12-01T01:04:07.486Z,51.03
2022-12-01T01:05:11.007Z,51.40
2022-12-01T01:06:13.992Z,50.13
2022-12-01T01:07:17.169Z,50.75
2022-12-01T01:08:19.384Z,50.30
2022-12-01T01:09:22.448Z,50.45
2022-12-01T01:10:24.452Z,49.75
2022-12-01T01:11:28.484Z,49.92
2022-12-01T01:12:30.581Z,50.50
2022-12-01T01:13:34.305Z,50.90
2022-12-01T01:14:37.357Z,50.00
2022-12-01T01:15:41.644Z,50.40
2022-12-01T01:16:45.412Z,50.55
2022-12-01T01:17:47.456Z,48.70
2022-12-01T01:18:50.843Z,50.05
2022-12-01T01:19:52.944Z,51.50
2022-12-01T01:20:57.594Z,49.03
2022-12-01T01:21:59.570Z,49.67
2022-12-01T01:23:02.625Z,51.22
2022-12-01T01:24:05.843Z,49.83
2022-12-01T01:25:09.660Z,50.72
2022-12-01T01:26:14.407Z,50.22
2022-12-01T01:27:17.582Z,51.55
2022-12-01T01:28:19.918Z,51.40
2022-12-01T01:29:23.066Z,49.67
2022-12-01T01:30:25.209Z,50.28
2022-12-01T01:31:31.825Z,49.03
2022-12-01T01:32:34.043Z,50.85
2022-12-01T01:33:37.766Z,50.00
2022-12-01T01:34:39.796Z,49.58
2022-12-01T01:35:42.825Z,48.60
2022-12-01T01:36:44.977Z,50.53
2022-12-01T01:37:50.016Z,50.65
2022-12-01T01:38:53.359Z,50.95
2022-12-01T01:39:56.386Z,51.45
2022-12-01T01:40:58.413Z,49.90
2022-12-01T01:42:01.550Z,51.80
2022-12-01T01:43:13.279Z,50.92
2022-12-01T01:44:55.831Z,51.10
2022-12-01T01:45:57.935Z,48.42
2022-12-01T01:47:03.727Z,50.58
2022-12-01T01:48:05.959Z,49.03
2022-12-01T01:49:12.465Z,50.00
2022-12-01T01:50:18.539Z,50.55
2022-12-01T01:51:27.923Z,49.80
2022-12-01T01:52:30.376Z,49.75
2022-12-01T01:53:33.629Z,50.28
2022-12-01T01:54:39.644Z,50.28
2022-12-01T01:55:42.701Z,50.95
2022-12-01T01:56:46.444Z,50.25
2022-12-01T01:57:49.597Z,50.72
2022-12-01T01:58:53.314Z,50.08
2022-12-01T02:00:00.255Z,50.63
2022-12-01T02:01:02.842Z,50.40
2022-12-01T02:02:09.162Z,50.33
2022-12-01T02:03:15.594Z,50.83
2022-12-01T02:04:20.416Z,49.30
2022-12-01T02:05:24.924Z,50.63
2022-12-01T02:06:28.209Z,49.92
2022-12-01T02:07:30.393Z,50.22
2022-12-01T02:08:36.559Z,50.40
2022-12-01T02:09:38.604Z,51.35
2022-12-01T02:10:58.136Z,50.08
2022-12-01T02:12:12.471Z,50.15
2022-12-01T02:13:25.210Z,49.10
2022-12-01T02:14:43.918Z,49.50
2022-12-01T02:15:56.844Z,49.00
2022-12-01T02:17:05.039Z,48.65
2022-12-01T02:18:22.462Z,51.42
2022-12-01T02:19:55.945Z,49.92
2022-12-01T02:21:26.676Z,49.42
2022-12-01T02:22:39.931Z,49.78
2022-12-01T02:24:09.240Z,50.28
2022-12-01T02:25:22.251Z,50.47
2022-12-01T02:26:39.501Z,49.58
2022-12-01T02:28:03.885Z,49.15
2022-12-01T02:29:50.644Z,49.22
2022-12-01T02:30:58.162Z,48.13
2022-12-01T02:32:12.647Z,49.70
2022-12-01T02:33:19.434Z,51.25
2022-12-01T02:34:28.796Z,52.33
2022-12-01T02:35:40.885Z,50.20
2022-12-01T02:36:49.329Z,50.20
2022-12-01T02:38:02.691Z,49.67
2022-12-01T02:39:10.577Z,49.55
2022-12-01T02:40:18.970Z,50.30
2022-12-01T02:41:29.559Z,51.30
2022-12-01T02:42:53.617Z,52.20
2022-12-01T02:44:04.469Z,51.05
2022-12-01T02:45:12.028Z,50.58
2022-12-01T02:46:23.641Z,49.53
2022-12-01T02:47:25.948Z,50.25
2022-12-01T02:48:32.522Z,52.75
2022-12-01T02:49:39.372Z,49.92
2022-12-01T02:50:44.621Z,51.30
2022-12-01T02:51:52.069Z,50.83
2022-12-01T02:52:54.548Z,51.08
2022-12-01T02:53:59.804Z,50.10
2022-12-01T02:55:01.882Z,51.45
2022-12-01T02:56:08.829Z,51.10
2022-12-01T02:57:12.372Z,52.35
2022-12-01T02:58:16.100Z,51.60
2022-12-01T02:59:18.263Z,51.55
2022-12-01T03:00:21.550Z,50.58
2022-12-01T03:01:41.453Z,51.85
2022-12-01T03:02:55.030Z,51.13
2022-12-01T03:04:11.911Z,50.65
2022-12-01T03:05:22.920Z,49.97
2022-12-01T03:06:37.400Z,49.78
2022-12-01T03:07:57.576Z,50.17
2022-12-01T03:09:10.317Z,49.55
2022-12-01T03:10:21.662Z,49.55
2022-12-01T03:11:34.802Z,51.42
2022-12-01T03:12:45.570Z,51.53
2022-12-01T03:15:05.617Z,48.42
2022-12-01T03:16:12.643Z,49.33
2022-12-01T03:17:25.442Z,51.05
2022-12-01T03:18:36.195Z,51.13
2022-12-01T03:20:53.203Z,49.35
2022-12-01T03:22:01.360Z,50.38
2022-12-01T03:23:09.502Z,51.60
2022-12-01T03:24:15.662Z,50.47
2022-12-01T03:25:20.070Z,51.47
2022-12-01T03:26:25.886Z,49.33
2022-12-01T03:27:31.804Z,52.38
2022-12-01T03:28:39.361Z,50.60
2022-12-01T03:29:45.253Z,50.83
2022-12-01T03:30:52.170Z,50.90
2022-12-01T03:31:59.117Z,51.40
2022-12-01T03:33:09.958Z,52.30
2022-12-01T03:34:16.755Z,50.90
2022-12-01T03:35:27.605Z,52.75
2022-12-01T03:36:37.070Z,50.55
2022-12-01T03:37:44.435Z,51.85
2022-12-01T03:38:52.295Z,52.47
2022-12-01T03:40:00.484Z,50.70
2022-12-01T03:41:09.527Z,51.55
2022-12-01T03:42:17.790Z,51.40
2022-12-01T03:43:25.072Z,52.50
2022-12-01T03:44:36.856Z,53.20
2022-12-01T03:45:47.296Z,51.05
2022-12-01T03:46:56.317Z,51.10
2022-12-01T03:47:58.813Z,50.22
2022-12-01T03:49:05.665Z,51.50
2022-12-01T03:50:13.355Z,51.42
2022-12-01T03:51:22.488Z,51.78
2022-12-01T03:52:33.936Z,50.28
2022-12-01T03:53:48.562Z,50.70
2022-12-01T03:55:01.825Z,52.88
2022-12-01T03:56:08.166Z,51.40
2022-12-01T03:57:14.476Z,51.38
2022-12-01T03:58:21.625Z,52.03
2022-12-01T03:59:25.807Z,51.22
2022-12-01T04:00:29.823Z,51.00
2022-12-01T04:01:33.453Z,50.47
2022-12-01T04:02:38.074Z,52.88
2022-12-01T04:03:40.467Z,51.83
2022-12-01T04:04:45.078Z,53.67
2022-12-01T04:05:47.206Z,51.60
2022-12-01T04:06:51.461Z,54.42
2022-12-01T04:07:54.011Z,52.40
2022-12-01T04:08:57.704Z,51.13
2022-12-01T04:09:59.857Z,52.70
2022-12-01T04:11:26.050Z,54.17
2022-12-01T04:12:30.606Z,51.65
2022-12-01T04:13:33.103Z,52.97
2022-12-01T04:14:35.166Z,52.53
2022-12-01T04:15:38.447Z,53.30
2022-12-01T04:16:43.879Z,52.78
2022-12-01T04:17:49.323Z,54.15
2022-12-01T04:18:54.153Z,53.88
2022-12-01T04:19:59.110Z,51.53
2022-12-01T04:21:01.250Z,51.90
2022-12-01T04:22:04.870Z,54.90
2022-12-01T04:23:06.957Z,53.97
2022-12-01T04:24:10.403Z,52.78
2022-12-01T04:25:12.592Z,52.85
2022-12-01T04:26:16.084Z,51.80
2022-12-01T04:27:19.575Z,52.60
2022-12-01T04:28:21.663Z,52.15
2022-12-01T04:29:25.093Z,53.03
2022-12-01T04:30:27.161Z,52.88
2022-12-01T04:31:30.497Z,52.15
2022-12-01T04:32:37.185Z,52.22
2022-12-01T04:33:40.303Z,52.65
2022-12-01T04:34:42.663Z,52.92
2022-12-01T04:35:47.193Z,54.00
2022-12-01T04:36:49.299Z,52.13
2022-12-01T04:37:52.490Z,53.72
2022-12-01T04:38:54.588Z,52.47
2022-12-01T04:39:57.717Z,53.50
2022-12-01T04:40:59.808Z,53.10
2022-12-01T04:42:02.991Z,53.17
2022-12-01T04:43:05.078Z,52.25
2022-12-01T04:44:08.179Z,52.75
2022-12-01T04:45:10.981Z,52.65
2022-12-01T04:46:14.191Z,51.65
2022-12-01T04:47:16.291Z,53.28
2022-12-01T04:48:19.353Z,52.83
2022-12-01T04:49:22.339Z,52.22
2022-12-01T04:50:25.461Z,52.90
2022-12-01T04:51:28.915Z,52.08
2022-12-01T04:52:35.237Z,52.78
2022-12-01T04:53:38.020Z,51.35
2022-12-01T04:54:41.269Z,52.17
2022-12-01T04:55:43.339Z,51.50
2022-12-01T04:56:46.748Z,51.13
2022-12-01T04:57:48.984Z,50.88
2022-12-01T04:58:52.132Z,51.83
2022-12-01T04:59:54.223Z,53.55
2022-12-01T05:01:02.993Z,52.80
2022-12-01T05:02:05.279Z,51.25
2022-12-01T05:03:13.526Z,51.22
2022-12-01T05:04:17.045Z,54.30
2022-12-01T05:05:20.247Z,52.85
2022-12-01T05:06:24.594Z,52.92
2022-12-01T05:07:29.109Z,53.40
2022-12-01T05:08:31.378Z,52.90
2022-12-01T05:09:34.578Z,54.47
2022-12-01T05:10:36.833Z,52.78
2022-12-01T05:11:39.964Z,52.88
2022-12-01T05:12:42.077Z,52.08
2022-12-01T05:13:47.336Z,52.70
2022-12-01T05:14:49.583Z,51.75
2022-12-01T05:15:52.950Z,53.30
2022-12-01T05:16:56.040Z,51.22
2022-12-01T05:17:59.377Z,52.42
2022-12-01T05:19:21.032Z,52.50
2022-12-01T05:20:44.424Z,50.85
2022-12-01T05:21:49.374Z,47.97
2022-12-01T05:23:10.771Z,49.15
2022-12-01T05:24:16.764Z,50.22
2022-12-01T05:25:19.081Z,51.65
2022-12-01T05:26:22.194Z,51.55
2022-12-01T05:27:24.307Z,51.80
2022-12-01T05:28:27.642Z,50.95
2022-12-01T05:29:33.006Z,50.63
2022-12-01T05:30:35.110Z,51.08
2022-12-01T05:31:39.747Z,51.65
2022-12-01T05:32:41.997Z,51.85
2022-12-01T05:33:45.092Z,51.65
2022-12-01T05:34:47.195Z,51.17
2022-12-01T05:35:51.058Z,51.97
2022-12-01T05:36:54.244Z,50.97
2022-12-01T05:37:57.731Z,50.35
2022-12-01T05:39:00.875Z,51.42
2022-12-01T05:40:03.065Z,52.65
2022-12-01T05:41:06.531Z,52.00
2022-12-01T05:42:08.624Z,51.63
2022-12-01T05:43:11.726Z,51.47
2022-12-01T05:44:14.860Z,52.72
2022-12-01T05:45:17.245Z,51.53
2022-12-01T05:46:20.641Z,51.85
2022-12-01T05:47:22.960Z,51.78
2022-12-01T05:48:26.496Z,50.42
2022-12-01T05:49:28.635Z,52.30
2022-12-01T05:50:32.154Z,51.42
2022-12-01T05:51:34.247Z,51.85
2022-12-01T05:52:37.919Z,53.85
2022-12-01T05:53:41.770Z,50.80
2022-12-01T05:54:44.859Z,51.40
2022-12-01T05:55:51.303Z,53.38
2022-12-01T05:56:54.395Z,50.65
2022-12-01T05:57:56.527Z,50.92
2022-12-01T05:58:59.669Z,51.92
2022-12-01T06:00:01.872Z,52.53
2022-12-01T06:01:14.556Z,51.72
2022-12-01T06:02:16.715Z,51.25
2022-12-01T06:03:19.921Z,51.17
2022-12-01T06:04:22.419Z,52.00
2022-12-01T06:05:25.604Z,50.70
2022-12-01T06:06:28.716Z,50.78
2022-12-01T06:07:32.179Z,50.65
2022-12-01T06:08:35.327Z,51.38
2022-12-01T06:09:38.847Z,51.75
2022-12-01T06:10:42.095Z,50.92
2022-12-01T06:11:44.252Z,51.38
2022-12-01T06:12:47.384Z,52.00
2022-12-01T06:13:50.512Z,51.63
2022-12-01T06:14:52.614Z,50.67
2022-12-01T06:16:00.531Z,50.72
2022-12-01T06:17:02.685Z,52.55
2022-12-01T06:18:05.907Z,51.58
2022-12-01T06:19:08.066Z,52.35
2022-12-01T06:20:12.819Z,51.20
2022-12-01T06:21:14.888Z,53.28
2022-12-01T06:22:18.039Z,52.47
2022-12-01T06:23:20.164Z,51.63
2022-12-01T06:24:23.286Z,53.72
2022-12-01T06:25:26.874Z,51.42
2022-12-01T06:26:30.160Z,51.28
2022-12-01T06:27:32.376Z,52.63
2022-12-01T06:28:35.846Z,53.15
2022-12-01T06:29:42.101Z,52.13
2022-12-01T06:30:45.726Z,51.15
2022-12-01T06:31:47.933Z,52.10
2022-12-01T06:32:51.168Z,50.85
2022-12-01T06:33:54.320Z,51.97
2022-12-01T06:34:56.435Z,51.45
2022-12-01T06:36:00.428Z,51.97
2022-12-01T06:37:02.611Z,51.28
2022-12-01T06:38:06.206Z,50.97
2022-12-01T06:39:10.113Z,50.00
2022-12-01T06:40:13.795Z,53.38
2022-12-01T06:41:18.364Z,53.22
2022-12-01T06:42:20.580Z,52.60
2022-12-01T06:43:23.668Z,51.10
2022-12-01T06:44:25.851Z,50.45
2022-12-01T06:45:29.460Z,51.22
2022-12-01T06:46:31.735Z,51.40
2022-12-01T06:47:34.915Z,50.67
2022-12-01T06:48:38.040Z,52.47
2022-12-01T06:49:40.129Z,53.05
2022-12-01T06:50:43.344Z,53.15
2022-12-01T06:51:46.302Z,50.40
2022-12-01T06:52:49.626Z,50.30
2022-12-01T06:53:54.922Z,49.63
2022-12-01T06:54:58.706Z,50.90
2022-12-01T06:56:01.325Z,50.28
2022-12-01T06:57:06.434Z,50.80
2022-12-01T06:58:08.852Z,51.55
2022-12-01T06:59:12.259Z,51.13
2022-12-01T07:00:15.574Z,50.60
2022-12-01T07:01:19.958Z,52.35
2022-12-01T07:02:23.266Z,51.58
2022-12-01T07:03:25.332Z,51.25
2022-12-01T07:04:28.496Z,52.53
2022-12-01T07:05:30.627Z,51.70
2022-12-01T07:06:34.100Z,51.95
2022-12-01T07:07:37.412Z,51.17
2022-12-01T07:08:40.565Z,51.80
2022-12-01T07:09:42.758Z,52.28
2022-12-01T07:10:45.884Z,51.40
2022-12-01T07:11:48.036Z,52.33
2022-12-01T07:12:52.510Z,53.25
2022-12-01T07:13:55.940Z,50.13
2022-12-01T07:14:59.143Z,51.28
2022-12-01T07:16:01.911Z,51.28
2022-12-01T07:17:05.325Z,53.38
2022-12-01T07:18:07.501Z,51.08
2022-12-01T07:19:10.785Z,50.05
2022-12-01T07:20:13.147Z,51.85
2022-12-01T07:21:16.936Z,53.00
2022-12-01T07:22:20.099Z,52.38
2022-12-01T07:23:22.214Z,52.17
2022-12-01T07:24:25.318Z,50.35
2022-12-01T07:25:27.423Z,51.30
2022-12-01T07:26:30.616Z,51.72
2022-12-01T07:27:32.713Z,53.78
2022-12-01T07:28:37.262Z,53.38
2022-12-01T07:29:39.351Z,52.83
2022-12-01T07:30:42.563Z,52.92
2022-12-01T07:31:45.832Z,51.78
2022-12-01T07:32:49.239Z,51.72
2022-12-01T07:33:52.593Z,50.65
2022-12-01T07:34:55.746Z,51.80
2022-12-01T07:35:57.983Z,52.20
2022-12-01T07:37:01.065Z,50.60
2022-12-01T07:38:04.237Z,52.50
2022-12-01T07:39:07.568Z,51.65
2022-12-01T07:40:12.115Z,52.95
2022-12-01T07:41:19.092Z,51.47
2022-12-01T07:42:22.309Z,51.15
2022-12-01T07:43:24.473Z,51.78
2022-12-01T07:44:28.960Z,52.38
2022-12-01T07:45:31.015Z,53.58
2022-12-01T07:46:34.257Z,49.90
2022-12-01T07:47:36.479Z,51.85
2022-12-01T07:48:40.713Z,51.35
2022-12-01T07:49:42.783Z,50.40
2022-12-01T07:50:45.876Z,52.38
2022-12-01T07:51:49.068Z,50.55
2022-12-01T07:52:51.637Z,51.17
2022-12-01T07:53:56.225Z,51.30
2022-12-01T07:54:59.387Z,52.22
2022-12-01T07:56:07.070Z,50.45
2022-12-01T07:57:14.309Z,50.25
2022-12-01T07:58:17.517Z,48.53
2022-12-01T07:59:20.609Z,50.70
2022-12-01T08:00:25.396Z,51.95
2022-12-01T08:01:27.724Z,51.15
2022-12-01T08:02:30.954Z,50.95
2022-12-01T08:03:34.083Z,51.70
2022-12-01T08:04:37.229Z,50.80
2022-12-01T08:05:39.366Z,50.75
2022-12-01T08:06:42.580Z,50.08
2022-12-01T08:07:44.721Z,51.40
2022-12-01T08:08:48.740Z,50.50
2022-12-01T08:09:52.091Z,51.42
2022-12-01T08:10:54.442Z,50.45
2022-12-01T08:11:57.551Z,49.35
2022-12-01T08:13:00.775Z,51.20
2022-12-01T08:14:03.932Z,51.03
2022-12-01T08:15:07.109Z,51.58
2022-12-01T08:16:14.819Z,50.92
2022-12-01T08:17:18.026Z,48.92
2022-12-01T08:18:20.215Z,50.20
2022-12-01T08:19:23.437Z,49.78
2022-12-01T08:20:26.659Z,49.30
2022-12-01T08:21:30.014Z,50.85
2022-12-01T08:22:32.528Z,48.38
2022-12-01T08:23:36.006Z,52.22
2022-12-01T08:24:38.048Z,49.40
2022-12-01T08:25:41.125Z,49.83
2022-12-01T08:26:43.252Z,49.80
2022-12-01T08:27:46.932Z,48.83
2022-12-01T08:28:49.109Z,48.65
2022-12-01T08:29:52.165Z,48.92
2022-12-01T08:30:55.722Z,48.42
2022-12-01T08:32:00.588Z,50.67
2022-12-01T08:33:02.713Z,49.17
2022-12-01T08:34:07.016Z,49.95
2022-12-01T08:35:09.805Z,49.15
2022-12-01T08:36:12.881Z,48.90
2022-12-01T08:37:16.524Z,49.20
2022-12-01T08:38:19.503Z,49.78
2022-12-01T08:39:22.587Z,49.92
2022-12-01T08:40:24.647Z,48.75
2022-12-01T08:41:28.508Z,47.50
2022-12-01T08:42:31.034Z,46.83
2022-12-01T08:43:56.700Z,47.58
2022-12-01T08:44:57.188Z,45.67
2022-12-01T08:46:00.295Z,44.97
2022-12-01T08:47:05.175Z,46.28
2022-12-01T08:48:08.325Z,45.28
2022-12-01T08:49:13.832Z,44.45
2022-12-01T08:50:17.395Z,44.17
2022-12-01T08:51:20.370Z,43.45
2022-12-01T08:52:23.714Z,43.08
2022-12-01T08:53:28.230Z,43.10
2022-12-01T08:54:33.258Z,44.03
2022-12-01T08:55:35.409Z,42.83
2022-12-01T08:56:41.402Z,45.42
2022-12-01T08:57:43.540Z,44.42
2022-12-01T08:58:46.913Z,44.75
2022-12-01T08:59:50.421Z,44.05
2022-12-01T09:00:53.820Z,43.75
2022-12-01T09:01:57.491Z,45.42
2022-12-01T09:03:02.535Z,45.08
2022-12-01T09:04:09.350Z,44.55
2022-12-01T09:05:12.435Z,43.97
2022-12-01T09:06:20.119Z,45.03
2022-12-01T09:07:26.559Z,42.30
2022-12-01T09:08:32.240Z,43.97
2022-12-01T09:09:36.466Z,43.25
2022-12-01T09:10:38.600Z,44.40
2022-12-01T09:11:43.661Z,43.35
2022-12-01T09:12:46.839Z,45.58
2022-12-01T09:13:54.708Z,44.70
2022-12-01T09:14:58.052Z,44.60
2022-12-01T09:16:02.103Z,43.70
2022-12-01T09:17:05.249Z,43.38
2022-12-01T09:18:08.639Z,45.22
2022-12-01T09:19:22.223Z,44.70
2022-12-01T09:20:28.273Z,45.13
2022-12-01T09:21:32.880Z,43.78
2022-12-01T09:22:34.933Z,45.13
2022-12-01T09:23:39.553Z,43.00
2022-12-01T09:24:42.645Z,44.05
2022-12-01T09:25:44.752Z,43.20
2022-12-01T09:26:47.823Z,44.88
2022-12-01T09:27:50.881Z,44.25
2022-12-01T09:28:55.093Z,45.10
2022-12-01T09:29:58.214Z,45.17
2022-12-01T09:31:05.439Z,44.00
2022-12-01T09:32:08.578Z,43.65
2022-12-01T09:33:12.831Z,44.40
2022-12-01T09:34:18.548Z,43.95
2022-12-01T09:35:23.419Z,42.40
2022-12-01T09:36:27.430Z,44.25
2022-12-01T09:37:30.480Z,43.05
2022-12-01T09:38:34.852Z,43.53
2022-12-01T09:39:37.873Z,42.13
2022-12-01T09:40:42.642Z,43.67
2022-12-01T09:41:48.326Z,43.53
2022-12-01T09:42:50.674Z,43.08
2022-12-01T09:43:59.166Z,43.47
2022-12-01T09:45:04.981Z,42.65
2022-12-01T09:46:13.310Z,43.47
2022-12-01T09:47:19.955Z,42.42
2022-12-01T09:48:30.545Z,42.15
2022-12-01T09:49:42.751Z,39.22
2022-12-01T09:50:45.901Z,41.25
2022-12-01T09:51:48.916Z,42.00
2022-12-01T09:52:56.918Z,43.05
2022-12-01T09:54:02.067Z,42.13
2022-12-01T09:55:12.725Z,42.67
2022-12-01T09:56:22.210Z,42.90
2022-12-01T09:57:31.886Z,40.75
2022-12-01T09:58:35.636Z,41.80
2022-12-01T09:59:43.163Z,41.03
2022-12-01T10:00:47.140Z,40.28
2022-12-01T10:01:54.690Z,40.22
2022-12-01T10:03:02.525Z,39.83
2022-12-01T10:04:13.094Z,40.28
2022-12-01T10:05:20.158Z,39.58
2022-12-01T10:06:30.141Z,38.85
2022-12-01T10:07:37.683Z,38.22
2022-12-01T10:08:45.172Z,36.10
2022-12-01T10:09:53.623Z,34.55
2022-12-01T10:11:02.767Z,35.10
2022-12-01T10:12:13.765Z,33.78
2022-12-01T10:13:20.220Z,36.00
2022-12-01T10:14:23.358Z,35.15
2022-12-01T10:15:37.275Z,34.75
2022-12-01T10:16:47.996Z,35.30
2022-12-01T10:19:06.544Z,29.75
2022-12-01T10:20:18.740Z,29.27
2022-12-01T10:21:36.658Z,29.55
2022-12-01T10:23:05.433Z,29.55
2022-12-01T10:24:28.664Z,27.63
2022-12-01T10:25:42.837Z,27.63
2022-12-01T10:26:52.720Z,28.05
2022-12-01T10:28:08.381Z,29.50
2022-12-01T10:29:24.067Z,28.95
2022-12-01T10:30:27.712Z,28.80
2022-12-01T10:31:40.011Z,28.70
2022-12-01T10:32:52.380Z,28.83
2022-12-01T10:34:02.729Z,27.50
2022-12-01T10:35:05.168Z,29.25
2022-12-01T10:36:11.563Z,28.73
2022-12-01T10:37:19.844Z,27.88
2022-12-01T10:38:27.719Z,29.58
2022-12-01T10:39:35.552Z,28.90
2022-12-01T10:40:38.350Z,27.52
2022-12-01T10:41:42.324Z,27.67
2022-12-01T10:42:46.199Z,28.17
2022-12-01T10:43:53.326Z,28.98
2022-12-01T10:44:58.691Z,28.90
2022-12-01T10:46:06.998Z,27.00
2022-12-01T10:47:19.648Z,27.98
2022-12-01T10:48:23.059Z,27.33
2022-12-01T10:49:37.219Z,27.55
2022-12-01T10:50:41.057Z,27.10
2022-12-01T10:51:51.655Z,26.98
2022-12-01T10:52:53.809Z,27.50
2022-12-01T10:54:01.083Z,27.23
2022-12-01T10:55:24.881Z,27.67
2022-12-01T10:56:28.627Z,27.95
2022-12-01T10:57:33.124Z,27.60
2022-12-01T10:58:47.903Z,28.17
2022-12-01T10:59:53.809Z,27.70
2022-12-01T11:01:00.016Z,27.95
2022-12-01T11:02:06.451Z,29.25
2022-12-01T11:03:21.860Z,28.75
2022-12-01T11:04:45.525Z,29.23
2022-12-01T11:05:53.893Z,28.00
2022-12-01T11:06:58.842Z,28.25
2022-12-01T11:08:02.418Z,28.25
2022-12-01T11:09:06.813Z,27.83
2022-12-01T11:10:19.041Z,27.15
2022-12-01T11:11:32.097Z,27.58
2022-12-01T11:12:34.965Z,26.80
2022-12-01T11:13:38.354Z,27.40
2022-12-01T11:14:46.014Z,27.17
2022-12-01T11:15:52.610Z,28.35
2022-12-01T11:16:57.148Z,28.17
2022-12-01T11:18:02.458Z,26.85
2022-12-01T11:19:25.454Z,29.15
2022-12-01T11:20:34.105Z,25.73
2022-12-01T11:21:47.415Z,26.40
2022-12-01T11:22:52.893Z,26.33
2022-12-01T11:24:00.519Z,25.23
2022-12-01T11:25:11.752Z,26.85
2022-12-01T11:26:21.729Z,25.38
2022-12-01T11:27:29.481Z,25.10
2022-12-01T11:28:36.557Z,25.70
2022-12-01T11:29:42.130Z,26.02
2022-12-01T11:30:45.123Z,25.52
2022-12-01T11:31:53.815Z,25.10
2022-12-01T11:33:00.527Z,26.73
2022-12-01T11:34:05.794Z,26.20
2022-12-01T11:35:18.845Z,24.40
2022-12-01T11:36:32.018Z,25.45
2022-12-01T11:38:27.735Z,24.85
2022-12-01T11:39:28.062Z,24.25
2022-12-01T11:40:34.149Z,25.85
2022-12-01T11:41:40.567Z,23.65
2022-12-01T11:42:49.772Z,26.10
2022-12-01T11:44:01.143Z,25.90
2022-12-01T11:45:19.665Z,26.23
2022-12-01T11:46:31.545Z,26.10
2022-12-01T11:47:34.938Z,26.23
2022-12-01T11:48:37.096Z,25.08
2022-12-01T11:49:47.240Z,26.83
2022-12-01T11:51:06.794Z,26.55
2022-12-01T11:52:31.195Z,26.27
2022-12-01T11:53:36.359Z,25.98
2022-12-01T11:54:56.302Z,25.63
2022-12-01T11:56:16.307Z,25.35
2022-12-01T11:57:33.722Z,26.38
2022-12-01T11:58:38.157Z,26.40
2022-12-01T11:59:41.504Z,26.63
2022-12-01T12:00:51.167Z,26.33
2022-12-01T12:02:15.174Z,26.13
2022-12-01T12:03:25.944Z,26.85
2022-12-01T12:04:43.740Z,26.85
2022-12-01T12:06:39.051Z,26.42
2022-12-01T12:07:41.017Z,23.38
2022-12-01T12:09:04.364Z,26.55
2022-12-01T12:10:24.200Z,27.23
2022-12-01T12:11:37.996Z,26.13
2022-12-01T12:12:55.903Z,26.92
2022-12-01T12:14:20.924Z,26.65
2022-12-01T12:15:34.864Z,25.92
2022-12-01T12:16:52.275Z,26.88
2022-12-01T12:18:10.722Z,27.05
2022-12-01T12:19:34.288Z,25.90
2022-12-01T12:20:56.022Z,27.65
2022-12-01T12:23:59.946Z,26.98
2022-12-01T12:25:20.433Z,24.27
2022-12-01T12:26:28.705Z,24.73
2022-12-01T12:27:43.645Z,25.33
2022-12-01T12:29:17.845Z,26.63
2022-12-01T12:30:24.257Z,26.75
2022-12-01T12:31:36.265Z,26.88
2022-12-01T12:32:53.444Z,26.92
2022-12-01T12:34:14.360Z,25.70
2022-12-01T12:36:40.995Z,24.87
2022-12-01T12:37:53.756Z,25.10
2022-12-01T12:39:10.842Z,26.38
2022-12-01T12:40:32.718Z,25.53
2022-12-01T12:41:39.824Z,25.38
2022-12-01T12:42:52.801Z,25.23
2022-12-01T12:44:05.861Z,25.38
2022-12-01T12:45:22.355Z,24.48
2022-12-01T12:46:36.950Z,24.85
2022-12-01T12:47:52.240Z,24.02
2022-12-01T12:49:19.592Z,23.85
2022-12-01T12:50:33.684Z,24.20
2022-12-01T12:51:40.825Z,23.67
2022-12-01T12:52:47.411Z,23.30
2022-12-01T12:53:54.975Z,23.70
2022-12-01T12:55:03.566Z,24.58
2022-12-01T12:56:11.214Z,24.23
2022-12-01T12:57:31.281Z,23.92
2022-12-01T12:58:40.077Z,22.83
2022-12-01T12:59:50.071Z,22.75
2022-12-01T13:00:59.267Z,23.60
2022-12-01T13:02:10.819Z,23.40
2022-12-01T13:03:20.043Z,23.77
2022-12-01T13:04:27.677Z,22.73
2022-12-01T13:05:36.831Z,21.95
2022-12-01T13:06:42.086Z,21.02
2022-12-01T13:07:51.016Z,21.80
2022-12-01T13:08:59.280Z,22.98
2022-12-01T13:10:10.395Z,20.55
2022-12-01T13:11:20.206Z,20.50
2022-12-01T13:12:29.476Z,21.70
2022-12-01T13:13:40.164Z,21.65
2022-12-01T13:15:50.832Z,21.27
2022-12-01T13:16:59.135Z,21.63
2022-12-01T13:18:13.499Z,20.40
2022-12-01T13:19:19.535Z,21.60
2022-12-01T13:20:27.521Z,21.20
2022-12-01T13:21:35.937Z,21.52
2022-12-01T13:22:39.509Z,20.30
2022-12-01T13:23:43.980Z,20.88
2022-12-01T13:24:46.069Z,21.08
2022-12-01T13:25:53.561Z,21.23
2022-12-01T13:27:01.115Z,19.80
2022-12-01T13:28:07.962Z,21.75
2022-12-01T13:29:18.042Z,20.05
2022-12-01T13:30:23.857Z,21.02
2022-12-01T13:31:27.290Z,21.70
2022-12-01T13:32:35.647Z,21.10
2022-12-01T13:33:41.648Z,20.35
2022-12-01T13:34:48.084Z,21.13
2022-12-01T13:36:15.445Z,20.70
2022-12-01T13:37:28.010Z,20.42
2022-12-01T13:38:32.798Z,20.10
2022-12-01T13:39:38.929Z,21.85
2022-12-01T13:40:41.056Z,20.48
2022-12-01T13:41:46.713Z,20.90
2022-12-01T13:42:58.548Z,20.70
2022-12-01T13:44:08.013Z,20.17
2022-12-01T13:45:19.263Z,20.33
2022-12-01T13:46:24.055Z,20.98
2022-12-01T13:47:49.062Z,23.20
2022-12-01T13:48:55.100Z,20.73
2022-12-01T13:49:58.408Z,21.27
2022-12-01T13:51:03.135Z,20.45
2022-12-01T13:52:33.714Z,20.58
2022-12-01T13:53:38.024Z,20.92
2022-12-01T13:55:00.040Z,20.77
2022-12-01T13:56:53.420Z,19.63
2022-12-01T13:58:39.316Z,19.27
2022-12-01T14:00:06.795Z,22.38
2022-12-01T14:01:44.782Z,20.70
2022-12-01T14:02:48.148Z,21.20
2022-12-01T14:03:53.217Z,21.33
2022-12-01T14:04:56.314Z,21.17
2022-12-01T14:06:08.473Z,21.83
2022-12-01T14:07:27.705Z,20.05
2022-12-01T14:08:33.845Z,21.90
2022-12-01T14:09:38.680Z,21.55
2022-12-01T14:10:42.509Z,20.67
2022-12-01T14:11:58.129Z,21.25
2022-12-01T14:13:04.860Z,21.58
2022-12-01T14:14:24.195Z,20.63
2022-12-01T14:15:40.230Z,19.90
2022-12-01T14:16:48.206Z,19.88
2022-12-01T14:18:01.682Z,20.80
2022-12-01T14:19:04.746Z,20.60
2022-12-01T14:20:22.959Z,20.20
2022-12-01T14:21:45.026Z,20.50
2022-12-01T14:22:50.420Z,20.40
2022-12-01T14:24:05.007Z,20.45
2022-12-01T14:25:25.557Z,19.15
2022-12-01T14:26:31.103Z,18.95
2022-12-01T14:27:35.948Z,19.33
2022-12-01T14:29:15.576Z,20.20
2022-12-01T14:30:55.564Z,18.98